Time;durP1;ratioP1;P1;durP2;ratioP2;P2;SDS_P1;SDS_P2;PMS_P1;PMS_P2;Temp;Humidity;BMP_temperature;BMP_pressure;BME280_temperature;BME280_humidity;BME280_pressure;Samples;Min_cycle;Max_cycle;Signal;HPM_P1;HPM_P2
2023/09/12 00:00:41;;;;;;;22.80;14.57;;;;;;;-145.18;100.00;46633.06;5090358;28;20399;-60
2023/09/12 00:03:06;;;;;;;29.30;16.73;;;;;;;-145.18;100.00;46633.06;5086126;28;20032;-60
2023/09/12 00:05:32;;;;;;;33.50;14.00;;;;;;;-145.18;100.00;46635.00;5087036;28;20077;-60
2023/09/12 00:07:57;;;;;;;21.80;13.83;;;;;;;-145.18;100.00;46635.00;5086907;28;20483;-59
2023/09/12 00:10:23;;;;;;;30.63;18.07;;;;;;;-145.18;100.00;46633.06;5085516;28;20028;-59
2023/09/12 00:12:48;;;;;;;32.80;17.93;;;;;;;-145.18;100.00;46636.94;5086292;28;20042;-60
2023/09/12 00:15:14;;;;;;;25.10;15.53;;;;;;;-145.18;100.00;46633.06;5090721;28;20059;-60
2023/09/12 00:17:39;;;;;;;19.87;13.90;;;;;;;-145.18;100.00;46633.06;5088151;28;20020;-60
2023/09/12 00:20:07;;;;;;;27.13;15.20;;;;;;;-145.18;100.00;46636.94;5088973;28;20446;-60
2023/09/12 00:22:32;;;;;;;25.73;15.47;;;;;;;-145.18;100.00;46638.91;5091029;28;20036;-60
2023/09/12 00:24:58;;;;;;;24.80;15.70;;;;;;;-145.18;100.00;46635.00;5084785;28;20044;-60
2023/09/12 00:27:23;;;;;;;23.10;14.97;;;;;;;-145.18;100.00;46640.88;5080103;28;20476;-60
2023/09/12 00:29:48;;;;;;;26.63;16.80;;;;;;;-145.18;100.00;46638.91;5113603;27;20052;-60
2023/09/12 00:32:14;;;;;;;24.83;15.57;;;;;;;-145.18;100.00;46636.94;5080836;28;20028;-60
2023/09/12 00:34:39;;;;;;;21.00;12.87;;;;;;;-145.18;100.00;46638.91;5080561;28;20455;-60
2023/09/12 00:37:05;;;;;;;16.80;11.07;;;;;;;-145.18;100.00;46640.88;5085916;28;20032;-60
2023/09/12 00:39:30;;;;;;;14.07;8.93;;;;;;;-145.18;100.00;46650.63;5087932;28;20062;-60
2023/09/12 00:41:55;;;;;;;10.17;7.60;;;;;;;-145.18;100.00;46642.81;5092521;28;20788;-60
2023/09/12 00:44:21;;;;;;;9.60;7.70;;;;;;;-145.18;100.00;46650.63;5083539;28;20031;-60
2023/09/12 00:46:49;;;;;;;10.27;8.27;;;;;;;-145.18;100.00;46652.59;5092016;28;20396;-60
2023/09/12 00:49:17;;;;;;;10.17;8.30;;;;;;;-145.18;100.00;46650.63;5092106;28;20025;-60
2023/09/12 00:51:44;;;;;;;15.17;9.03;;;;;;;-145.18;100.00;46640.88;5093323;28;20058;-60
2023/09/12 00:54:10;;;;;;;12.07;8.97;;;;;;;-145.18;100.00;46654.53;5089991;28;20021;-60
2023/09/12 00:56:35;;;;;;;13.97;9.30;;;;;;;-145.18;100.00;46652.59;5083733;28;20089;-60
2023/09/12 00:59:02;;;;;;;19.50;9.27;;;;;;;-145.18;100.00;46654.53;5089314;28;20052;-60
2023/09/12 01:01:28;;;;;;;32.20;9.17;;;;;;;-145.18;100.00;46648.69;5093879;28;20510;-60
2023/09/12 01:03:55;;;;;;;15.80;8.30;;;;;;;-145.18;100.00;46640.88;5089905;28;20028;-60
2023/09/12 01:06:25;;;;;;;15.83;8.93;;;;;;;-145.18;100.00;46640.88;5091181;28;20434;-60
2023/09/12 01:08:51;;;;;;;15.33;10.53;;;;;;;-145.18;100.00;46650.63;5088045;28;20020;-60
2023/09/12 01:11:17;;;;;;;14.33;8.87;;;;;;;-145.18;100.00;46642.81;5082773;28;20073;-60
2023/09/12 01:13:42;;;;;;;11.40;8.37;;;;;;;-145.18;100.00;46640.88;5092021;28;20028;-60
2023/09/12 01:16:08;;;;;;;10.53;8.13;;;;;;;-145.18;100.00;46640.88;5092030;28;20059;-60
2023/09/12 01:18:33;;;;;;;11.00;7.70;;;;;;;-145.18;100.00;46650.63;5088948;28;20039;-61
2023/09/12 01:21:25;;;;;;;10.40;8.13;;;;;;;-145.18;100.00;46654.53;5086930;28;20033;-60
2023/09/12 01:24:02;;;;;;;9.37;7.20;;;;;;;-145.18;100.00;46652.59;5085665;28;20107;-60
2023/09/12 01:26:53;;;;;;;9.43;8.10;;;;;;;-145.18;100.00;46642.81;5074962;28;20438;-60
2023/09/12 01:29:20;;;;;;;12.67;7.43;;;;;;;-145.18;100.00;46642.81;5077670;28;20128;-60
2023/09/12 01:31:47;;;;;;;12.43;7.23;;;;;;;-145.18;100.00;46652.59;5073973;28;20032;-60
2023/09/12 01:34:14;;;;;;;9.57;6.80;;;;;;;-145.18;100.00;46650.63;5073117;28;20028;-60
2023/09/12 01:36:39;;;;;;;14.40;8.00;;;;;;;-145.18;100.00;46652.59;5076962;28;20032;-66
2023/09/12 01:39:05;;;;;;;13.83;8.97;;;;;;;-145.18;100.00;46638.91;5085262;28;20407;-66
2023/09/12 01:41:34;;;;;;;14.03;8.10;;;;;;;-145.18;100.00;46650.63;5078496;28;20047;-66
2023/09/12 01:44:01;;;;;;;11.33;8.20;;;;;;;-145.18;100.00;46652.59;5085564;28;20036;-66
2023/09/12 01:46:27;;;;;;;12.87;7.23;;;;;;;-145.18;100.00;46654.53;5092335;28;20028;-66
2023/09/12 01:48:55;;;;;;;9.37;7.17;;;;;;;-145.18;100.00;46656.50;5082434;28;20434;-66
2023/09/12 01:51:22;;;;;;;13.00;8.00;;;;;;;-145.18;100.00;46660.41;5085341;28;20043;-66
2023/09/12 01:53:49;;;;;;;17.43;8.00;;;;;;;-145.18;100.00;46658.44;5084589;28;20028;-66
2023/09/12 01:56:15;;;;;;;10.33;8.00;;;;;;;-145.18;100.00;46652.59;5082520;28;20032;-66
2023/09/12 01:58:40;;;;;;;14.00;8.73;;;;;;;-145.18;100.00;46652.59;5077443;28;20042;-67
2023/09/12 02:01:06;;;;;;;11.97;8.70;;;;;;;-145.18;100.00;46650.63;5091829;28;20040;-66
2023/09/12 02:03:31;;;;;;;12.30;8.53;;;;;;;-145.18;100.00;46654.53;5075778;28;20130;-67
2023/09/12 02:05:57;;;;;;;16.87;8.00;;;;;;;-145.18;100.00;46650.63;5092620;28;20032;-67
2023/09/12 02:08:22;;;;;;;11.53;8.03;;;;;;;-145.18;100.00;46652.59;5090700;28;20111;-66
2023/09/12 02:10:47;;;;;;;18.67;9.77;;;;;;;-145.18;100.00;46660.41;5091501;28;20028;-66
2023/09/12 02:13:13;;;;;;;12.43;8.97;;;;;;;-145.18;100.00;46658.44;5092162;28;20024;-66
2023/09/12 02:15:38;;;;;;;12.00;8.60;;;;;;;-145.18;100.00;46658.44;5073485;28;20024;-67
2023/09/12 02:18:04;;;;;;;10.30;7.33;;;;;;;-145.18;100.00;46660.41;5081333;28;20032;-66
2023/09/12 02:20:29;;;;;;;10.00;7.80;;;;;;;-145.18;100.00;46658.44;5083829;28;20063;-67
2023/09/12 02:22:55;;;;;;;12.60;9.10;;;;;;;-145.18;100.00;46654.53;5089749;28;20514;-67
2023/09/12 02:25:20;;;;;;;10.67;7.80;;;;;;;-145.18;100.00;46654.53;5086620;28;20469;-67
2023/09/12 02:27:46;;;;;;;13.67;9.23;;;;;;;-145.18;100.00;46656.50;5087909;28;20028;-67
2023/09/12 02:30:11;;;;;;;9.83;8.17;;;;;;;-145.18;100.00;46652.59;5084332;28;20033;-67
2023/09/12 02:32:36;;;;;;;11.07;7.50;;;;;;;-145.18;100.00;46650.63;5088628;28;20644;-67
2023/09/12 02:35:02;;;;;;;9.80;7.50;;;;;;;-145.18;100.00;46652.59;5087403;28;20024;-67
2023/09/12 02:37:28;;;;;;;7.40;5.90;;;;;;;-145.18;100.00;46640.88;5089238;28;20032;-67
2023/09/12 02:39:53;;;;;;;10.10;6.33;;;;;;;-145.18;100.00;46654.53;5092609;28;20028;-67
2023/09/12 02:42:19;;;;;;;8.20;7.23;;;;;;;-145.18;100.00;46650.63;5091383;28;20054;-67
2023/09/12 02:44:44;;;;;;;13.40;8.90;;;;;;;-145.18;100.00;46650.63;5085913;28;20028;-67
2023/09/12 02:47:09;;;;;;;16.83;10.10;;;;;;;-145.18;100.00;46654.53;5082406;28;20036;-60
2023/09/12 02:49:35;;;;;;;15.83;10.20;;;;;;;-145.18;100.00;46640.88;5077496;28;20503;-61
2023/09/12 02:52:00;;;;;;;17.70;11.23;;;;;;;-145.18;100.00;46652.59;5075688;28;20029;-60
2023/09/12 02:54:25;;;;;;;16.90;11.27;;;;;;;-145.18;100.00;46642.81;5090558;28;20059;-61
2023/09/12 02:56:51;;;;;;;15.83;11.07;;;;;;;-145.18;100.00;46640.88;5090002;28;20101;-60
2023/09/12 02:59:16;;;;;;;13.60;10.60;;;;;;;-145.18;100.00;46650.63;5091995;28;20066;-60
2023/09/12 03:01:41;;;;;;;15.87;10.83;;;;;;;-145.18;100.00;46652.59;5090183;28;20036;-60
2023/09/12 03:04:07;;;;;;;14.37;10.20;;;;;;;-145.18;100.00;46640.88;5079576;28;20059;-60
2023/09/12 03:06:32;;;;;;;11.67;9.60;;;;;;;-145.18;100.00;46640.88;5090324;28;20441;-60
2023/09/12 03:08:58;;;;;;;14.67;11.37;;;;;;;-145.18;100.00;46640.88;5092175;28;20544;-60
2023/09/12 03:11:27;;;;;;;14.47;10.20;;;;;;;-145.18;100.00;46640.88;5072980;28;20036;-60
2023/09/12 03:13:52;;;;;;;13.30;10.37;;;;;;;-145.18;100.00;46642.81;5074296;28;20039;-60
2023/09/12 03:16:18;;;;;;;18.83;11.90;;;;;;;-145.18;100.00;46640.88;5085011;28;20035;-60
2023/09/12 03:18:43;;;;;;;16.27;11.57;;;;;;;-145.18;100.00;46650.63;5094539;28;20059;-60
2023/09/12 03:21:08;;;;;;;17.70;10.87;;;;;;;-145.18;100.00;46650.63;5075783;28;20471;-60
2023/09/12 03:23:34;;;;;;;16.50;10.50;;;;;;;-145.18;100.00;46638.91;5076134;28;20062;-61
2023/09/12 03:26:06;;;;;;;20.57;9.73;;;;;;;-145.18;100.00;46636.94;5094016;28;20527;-60
2023/09/12 03:28:32;;;;;;;13.57;8.70;;;;;;;-145.18;100.00;46640.88;5094141;28;20419;-60
2023/09/12 03:31:12;;;;;;;11.50;8.93;;;;;;;-145.18;100.00;46642.81;5094378;28;20089;-60
2023/09/12 03:33:38;;;;;;;13.33;9.63;;;;;;;-145.18;100.00;46642.81;5093191;28;20039;-60
2023/09/12 03:36:05;;;;;;;15.03;9.30;;;;;;;-145.18;100.00;46642.81;5093104;28;20101;-60
2023/09/12 03:38:30;;;;;;;11.17;9.40;;;;;;;-145.18;100.00;46652.59;5094398;28;20044;-60
2023/09/12 03:40:56;;;;;;;12.10;8.63;;;;;;;-145.18;100.00;46650.63;5093983;28;20498;-61
2023/09/12 03:43:21;;;;;;;13.47;8.77;;;;;;;-145.18;100.00;46652.59;5091897;28;20029;-60
2023/09/12 03:45:46;;;;;;;18.27;10.87;;;;;;;-145.18;100.00;46650.63;5076048;28;20054;-60
2023/09/12 03:48:12;;;;;;;19.27;12.10;;;;;;;-145.18;100.00;46642.81;5080073;28;20068;-60
2023/09/12 03:50:37;;;;;;;19.60;13.00;;;;;;;-145.18;100.00;46642.81;5076330;28;20067;-60
2023/09/12 03:53:03;;;;;;;17.33;11.57;;;;;;;-145.18;100.00;46652.59;5091134;28;20098;-61
2023/09/12 03:55:28;;;;;;;19.10;12.40;;;;;;;-145.18;100.00;46650.63;5085468;28;20029;-60
2023/09/12 03:57:53;;;;;;;18.00;11.47;;;;;;;-145.18;100.00;46650.63;5088440;28;20488;-68
2023/09/12 04:00:19;;;;;;;17.10;10.93;;;;;;;-145.18;100.00;46640.88;5080848;28;20040;-67
2023/09/12 04:02:44;;;;;;;18.03;10.17;;;;;;;-145.18;100.00;46642.81;5088900;28;20040;-67
2023/09/12 04:05:10;;;;;;;19.43;10.93;;;;;;;-145.18;100.00;46654.53;5091773;28;20035;-67
2023/09/12 04:07:35;;;;;;;16.23;11.00;;;;;;;-145.18;100.00;46650.63;5092719;28;20043;-67
2023/09/12 04:10:01;;;;;;;16.67;10.40;;;;;;;-145.18;100.00;46642.81;5094932;28;20076;-68
2023/09/12 04:12:26;;;;;;;14.80;9.27;;;;;;;-145.18;100.00;46650.63;5088468;28;20502;-68
2023/09/12 04:14:52;;;;;;;17.20;10.77;;;;;;;-145.18;100.00;46650.63;5092016;28;20111;-67
2023/09/12 04:17:18;;;;;;;18.07;11.90;;;;;;;-145.18;100.00;46650.63;5074672;28;20028;-67
2023/09/12 04:19:43;;;;;;;19.07;12.10;;;;;;;-145.18;100.00;46652.59;5083991;28;20372;-68
2023/09/12 04:22:08;;;;;;;22.90;13.03;;;;;;;-145.18;100.00;46652.59;5078995;28;20033;-67
2023/09/12 04:24:34;;;;;;;24.33;14.23;;;;;;;-145.18;100.00;46652.59;5076221;28;20031;-67
2023/09/12 04:26:59;;;;;;;21.77;13.90;;;;;;;-145.18;100.00;46642.81;5079987;28;20032;-67
2023/09/12 04:29:24;;;;;;;21.20;12.97;;;;;;;-145.18;100.00;46656.50;5089589;28;20528;-68
2023/09/12 04:31:52;;;;;;;25.87;14.30;;;;;;;-145.18;100.00;46640.88;5087833;28;20042;-67
2023/09/12 04:34:17;;;;;;;24.83;14.17;;;;;;;-145.18;100.00;46640.88;5089967;28;20468;-67
2023/09/12 04:36:43;;;;;;;27.10;14.87;;;;;;;-145.18;100.00;46654.53;5086106;28;20030;-70
2023/09/12 04:39:09;;;;;;;25.40;14.47;;;;;;;-145.18;100.00;46640.88;5085300;28;20476;-70
2023/09/12 04:41:34;;;;;;;25.37;14.03;;;;;;;-145.18;100.00;46642.81;5093912;28;20035;-70
2023/09/12 04:44:02;;;;;;;26.03;13.90;;;;;;;-145.18;100.00;46642.81;5085304;28;20116;-68
2023/09/12 04:46:27;;;;;;;22.00;14.27;;;;;;;-145.18;100.00;46640.88;5088730;28;20061;-67
2023/09/12 04:48:53;;;;;;;26.23;13.97;;;;;;;-145.18;100.00;46638.91;5084488;28;20028;-68
2023/09/12 04:51:18;;;;;;;19.27;11.93;;;;;;;-145.18;100.00;46636.94;5081162;28;20103;-68
2023/09/12 04:53:44;;;;;;;30.40;14.70;;;;;;;-145.18;100.00;46636.94;5084598;28;20157;-68
2023/09/12 04:56:10;;;;;;;26.30;15.33;;;;;;;-145.18;100.00;46638.91;5081698;28;20047;-68
2023/09/12 04:58:35;;;;;;;21.20;12.47;;;;;;;-145.18;100.00;46636.94;5085565;28;20031;-68
2023/09/12 05:01:02;;;;;;;15.03;10.23;;;;;;;-145.18;100.00;46636.94;5084489;28;20061;-68
2023/09/12 05:03:27;;;;;;;15.13;9.90;;;;;;;-145.18;100.00;46640.88;5088009;28;20035;-68
2023/09/12 05:05:53;;;;;;;13.73;9.30;;;;;;;-145.18;100.00;46636.94;5087659;28;20684;-68
2023/09/12 05:08:18;;;;;;;18.47;10.30;;;;;;;-145.18;100.00;46636.94;5077199;28;20033;-60
2023/09/12 05:10:44;;;;;;;17.53;10.93;;;;;;;-145.18;100.00;46635.00;5087543;28;20035;-60
2023/09/12 05:13:09;;;;;;;19.23;11.43;;;;;;;-145.18;100.00;46640.88;5084729;28;20513;-60
2023/09/12 05:15:36;;;;;;;21.37;12.70;;;;;;;-145.18;100.00;46642.81;5088469;28;20042;-60
2023/09/12 05:18:02;;;;;;;14.83;9.37;;;;;;;-145.18;100.00;46638.91;5089835;28;20111;-61
2023/09/12 05:20:27;;;;;;;15.43;10.70;;;;;;;-145.18;100.00;46640.88;5090441;28;20062;-61
2023/09/12 05:22:53;;;;;;;19.77;12.57;;;;;;;-145.18;100.00;46640.88;5088865;28;20027;-60
2023/09/12 05:25:18;;;;;;;28.03;15.83;;;;;;;-145.18;100.00;46642.81;5090204;28;20044;-61
2023/09/12 05:27:43;;;;;;;30.00;14.40;;;;;;;-145.18;100.00;46638.91;5086359;28;20470;-61
2023/09/12 05:30:09;;;;;;;21.00;11.40;;;;;;;-145.18;100.00;46638.91;5093615;28;20031;-60
2023/09/12 05:32:36;;;;;;;20.37;12.40;;;;;;;-145.18;100.00;46638.91;5088348;28;20400;-60
2023/09/12 05:35:02;;;;;;;23.50;13.70;;;;;;;-145.18;100.00;46652.59;5087931;28;20591;-60
2023/09/12 05:37:28;;;;;;;20.70;12.87;;;;;;;-145.18;100.00;46638.91;5084731;28;20032;-60
2023/09/12 05:39:53;;;;;;;29.73;15.67;;;;;;;-145.18;100.00;46638.91;5090248;28;20458;-60
2023/09/12 05:42:20;;;;;;;27.27;14.73;;;;;;;-145.18;100.00;46638.91;5088770;28;20038;-60
2023/09/12 05:44:48;;;;;;;29.40;15.57;;;;;;;-145.18;100.00;46650.63;5083373;28;20063;-60
2023/09/12 05:47:14;;;;;;;29.17;15.27;;;;;;;-145.18;100.00;46638.91;5084812;28;20035;-61
2023/09/12 05:49:40;;;;;;;22.73;13.23;;;;;;;-145.18;100.00;46636.94;5081929;28;20032;-60
2023/09/12 05:52:05;;;;;;;25.93;13.80;;;;;;;-145.18;100.00;46640.88;5079523;28;20029;-60
2023/09/12 05:54:31;;;;;;;23.87;13.47;;;;;;;-145.18;100.00;46638.91;5088822;28;20020;-61
2023/09/12 05:56:56;;;;;;;26.43;15.03;;;;;;;-145.18;100.00;46635.00;5087549;28;20032;-60
2023/09/12 05:59:21;;;;;;;18.50;11.33;;;;;;;-145.18;100.00;46640.88;5075521;28;20115;-61
2023/09/12 06:01:48;;;;;;;19.23;10.30;;;;;;;-145.18;100.00;46650.63;5080972;28;20495;-61
2023/09/12 06:04:14;;;;;;;22.40;11.83;;;;;;;-145.18;100.00;46636.94;5082885;28;20036;-60
2023/09/12 06:06:39;;;;;;;27.47;14.13;;;;;;;-145.18;100.00;46638.91;5082120;28;20480;-60
2023/09/12 06:09:05;;;;;;;32.23;15.30;;;;;;;-145.18;100.00;46638.91;5084708;28;20480;-60
2023/09/12 06:11:31;;;;;;;26.73;15.10;;;;;;;-145.18;100.00;46650.63;5082182;28;20058;-61
2023/09/12 06:13:56;;;;;;;35.43;16.17;;;;;;;-145.18;100.00;46636.94;5082112;28;20490;-60
2023/09/12 06:16:22;;;;;;;32.67;16.37;;;;;;;-145.18;100.00;46640.88;5091375;28;20168;-60
2023/09/12 06:18:48;;;;;;;34.47;16.70;;;;;;;-145.18;100.00;46650.63;5093972;28;20054;-69
2023/09/12 06:21:14;;;;;;;30.67;15.70;;;;;;;-145.18;100.00;46640.88;5092056;28;20036;-69
2023/09/12 06:23:39;;;;;;;33.97;17.37;;;;;;;-145.18;100.00;46650.63;5075765;28;20586;-69
2023/09/12 06:26:04;;;;;;;34.23;17.37;;;;;;;-145.18;100.00;46650.63;5088198;28;20031;-69
2023/09/12 06:28:31;;;;;;;32.40;15.57;;;;;;;-145.18;100.00;46652.59;5077012;28;20052;-69
2023/09/12 06:30:58;;;;;;;31.57;14.70;;;;;;;-145.18;100.00;46640.88;5078638;28;20032;-69
2023/09/12 06:33:25;;;;;;;26.90;14.80;;;;;;;-145.18;100.00;46650.63;5081614;28;20032;-69
2023/09/12 06:35:52;;;;;;;28.53;14.73;;;;;;;-145.18;100.00;46638.91;5090316;28;20028;-69
2023/09/12 06:38:18;;;;;;;32.33;15.63;;;;;;;-145.18;100.00;46650.63;5088285;28;20100;-69
2023/09/12 06:40:44;;;;;;;27.93;15.47;;;;;;;-145.18;100.00;46640.88;5117152;27;20050;-69
2023/09/12 06:43:09;;;;;;;29.00;15.73;;;;;;;-145.18;100.00;46640.88;5083075;28;20444;-69
2023/09/12 06:45:37;;;;;;;27.97;15.93;;;;;;;-145.18;100.00;46638.91;5086454;28;20027;-69
2023/09/12 06:48:03;;;;;;;36.37;17.57;;;;;;;-145.18;100.00;46640.88;5089173;28;20107;-69
2023/09/12 06:50:29;;;;;;;34.87;16.27;;;;;;;-145.18;100.00;46638.91;5089334;28;20077;-69
2023/09/12 06:52:54;;;;;;;34.40;17.73;;;;;;;-145.18;100.00;46638.91;5086608;28;20027;-70
2023/09/12 06:55:20;;;;;;;33.80;16.93;;;;;;;-145.18;100.00;46636.94;5089316;28;20031;-70
2023/09/12 06:57:46;;;;;;;42.00;19.23;;;;;;;-145.18;100.00;46638.91;5088850;28;20043;-69
2023/09/12 07:00:12;;;;;;;40.50;20.07;;;;;;;-145.18;100.00;46638.91;5087781;28;20107;-70
2023/09/12 07:02:38;;;;;;;40.50;20.40;;;;;;;-145.18;100.00;46638.91;5085400;28;20043;-70
2023/09/12 07:05:04;;;;;;;42.57;20.47;;;;;;;-145.18;100.00;46640.88;5091044;28;20048;-69
2023/09/12 07:07:30;;;;;;;39.37;19.17;;;;;;;-145.18;100.00;46635.00;5088573;28;20074;-69
2023/09/12 07:09:56;;;;;;;44.73;20.97;;;;;;;-145.18;100.00;46638.91;5089647;28;20028;-69
2023/09/12 07:12:21;;;;;;;43.37;21.13;;;;;;;-145.18;100.00;46638.91;5087420;28;20117;-69
2023/09/12 07:14:47;;;;;;;46.80;22.13;;;;;;;-145.18;100.00;46640.88;5087877;28;20020;-69
2023/09/12 07:17:12;;;;;;;51.07;22.93;;;;;;;-145.18;100.00;46642.81;5089064;28;20057;-71
2023/09/12 07:19:37;;;;;;;52.23;23.70;;;;;;;-145.18;100.00;46650.63;5089375;28;20039;-70
2023/09/12 07:22:03;;;;;;;53.63;24.50;;;;;;;-145.18;100.00;46640.88;5107611;28;20044;-70
2023/09/12 07:24:28;;;;;;;54.33;23.97;;;;;;;-145.18;100.00;46638.91;5113709;28;20103;-70
2023/09/12 07:26:54;;;;;;;54.90;25.90;;;;;;;-145.18;100.00;46638.91;5115271;28;20036;-70
2023/09/12 07:29:19;;;;;;;59.17;26.90;;;;;;;-145.18;100.00;46638.91;5089906;28;20457;-69
2023/09/12 07:31:45;;;;;;;54.37;25.83;;;;;;;-145.18;100.00;46638.91;5088745;28;20093;-69
2023/09/12 07:34:11;;;;;;;56.57;27.10;;;;;;;-145.18;100.00;46638.91;5089465;28;20487;-69
2023/09/12 07:36:37;;;;;;;63.07;27.97;;;;;;;-145.18;100.00;46636.94;5086925;28;20032;-70
2023/09/12 07:39:03;;;;;;;62.80;28.97;;;;;;;-145.18;100.00;46640.88;5116720;28;20569;-70
2023/09/12 07:41:29;;;;;;;73.43;31.40;;;;;;;-145.18;100.00;46597.88;5089617;28;20066;-69
2023/09/12 07:43:55;;;;;;;82.90;32.83;;;;;;;-145.18;100.00;46595.94;5088627;28;20074;-70
2023/09/12 07:46:20;;;;;;;76.17;31.53;;;;;;;-145.18;100.00;46593.97;5089985;28;20032;-70
2023/09/12 07:48:46;;;;;;;67.47;29.87;;;;;;;-145.18;100.00;46593.97;5090025;28;20387;-70
2023/09/12 07:51:17;;;;;;;69.20;29.97;;;;;;;-145.18;100.00;46597.88;5087253;28;20024;-70
2023/09/12 07:53:43;;;;;;;69.60;29.37;;;;;;;-145.18;100.00;46601.78;5088889;28;20028;-70
2023/09/12 07:56:12;;;;;;;69.40;29.53;;;;;;;-145.18;100.00;46603.75;5088436;28;20566;-70
2023/09/12 07:58:37;;;;;;;65.00;30.70;;;;;;;-145.18;100.00;46611.56;5088112;28;20036;-70
2023/09/12 08:01:09;;;;;;;72.60;31.33;;;;;;;-145.18;100.00;46609.59;5089544;28;20077;-70
2023/09/12 08:03:36;;;;;;;71.60;29.73;;;;;;;-145.18;100.00;46617.41;5092565;28;20089;-70
2023/09/12 08:06:03;;;;;;;73.80;31.20;;;;;;;-145.18;100.00;46613.50;5091275;28;20036;-71
2023/09/12 08:08:29;;;;;;;70.57;29.30;;;;;;;-145.18;100.00;46617.41;5090830;28;20024;-70
2023/09/12 08:10:55;;;;;;;70.17;30.67;;;;;;;-145.18;100.00;46615.47;5092724;28;20111;-70
2023/09/12 08:13:21;;;;;;;70.10;29.80;;;;;;;-145.18;100.00;46617.41;5091660;28;20434;-70
2023/09/12 08:15:47;;;;;;;70.57;30.33;;;;;;;-145.18;100.00;46615.47;5111128;27;20055;-70
2023/09/12 08:18:12;;;;;;;63.47;30.77;;;;;;;-145.18;100.00;46615.47;5093538;28;20085;-70
2023/09/12 08:20:38;;;;;;;66.70;30.03;;;;;;;-145.18;100.00;46621.31;5091355;28;20026;-70
2023/09/12 08:23:03;;;;;;;63.27;30.17;;;;;;;-145.18;100.00;46621.31;5091853;28;20032;-70
2023/09/12 08:25:28;;;;;;;63.23;29.97;;;;;;;-145.18;100.00;46627.19;5093201;28;20051;-70
2023/09/12 08:27:54;;;;;;;61.83;29.00;;;;;;;-145.18;100.00;46629.13;5092296;28;20059;-69
2023/09/12 08:30:19;;;;;;;59.20;29.30;;;;;;;-145.18;100.00;46631.09;5088979;28;20027;-70
2023/09/12 08:32:45;;;;;;;59.63;29.73;;;;;;;-145.18;100.00;46633.06;5092137;28;20620;-70
2023/09/12 08:35:12;;;;;;;61.03;29.70;;;;;;;-145.18;100.00;46635.00;5090412;28;20556;-70
2023/09/12 08:37:39;;;;;;;61.70;29.47;;;;;;;-145.18;100.00;46636.94;5090070;28;20063;-61
2023/09/12 08:40:07;;;;;;;61.57;30.13;;;;;;;-145.18;100.00;46635.00;5090162;28;20123;-60
2023/09/12 08:42:44;;;;;;;60.53;28.80;;;;;;;-145.18;100.00;46638.91;5091168;28;20028;-61
2023/09/12 08:45:15;;;;;;;61.10;29.80;;;;;;;-145.18;100.00;46638.91;5091989;28;20020;-61
2023/09/12 08:47:42;;;;;;;57.93;29.03;;;;;;;-145.18;100.00;46638.91;5092192;28;20028;-61
2023/09/12 08:50:15;;;;;;;62.57;30.23;;;;;;;-145.18;100.00;46635.00;5090417;28;20032;-61
2023/09/12 08:52:42;;;;;;;57.47;28.13;;;;;;;-145.18;100.00;46642.81;5092324;28;20059;-61
2023/09/12 08:55:08;;;;;;;62.17;30.57;;;;;;;-145.18;100.00;46644.78;5093233;28;20035;-61
2023/09/12 08:57:37;;;;;;;59.97;29.60;;;;;;;-145.18;100.00;46640.88;5092250;28;20068;-61
2023/09/12 09:00:06;;;;;;;60.73;30.33;;;;;;;-145.18;100.00;46644.78;5091147;28;20058;-61
2023/09/12 09:02:33;;;;;;;58.97;28.13;;;;;;;-145.18;100.00;46640.88;5088626;28;20032;-61
2023/09/12 09:04:59;;;;;;;58.07;28.63;;;;;;;-145.18;100.00;46642.81;5090768;28;20043;-61
2023/09/12 09:07:25;;;;;;;57.50;29.27;;;;;;;-145.18;100.00;46644.78;5091246;28;20035;-61
2023/09/12 09:09:53;;;;;;;54.37;28.43;;;;;;;-145.18;100.00;46648.69;5072167;28;20483;-61
2023/09/12 09:12:19;;;;;;;58.80;27.70;;;;;;;-145.18;100.00;46648.69;5089388;28;20080;-61
2023/09/12 09:14:44;;;;;;;59.17;28.90;;;;;;;-145.18;100.00;46652.59;5089062;28;20103;-61
2023/09/12 09:17:11;;;;;;;60.47;28.13;;;;;;;-145.18;100.00;46660.41;5092213;28;20030;-61
2023/09/12 09:19:44;;;;;;;61.60;29.47;;;;;;;-145.18;100.00;46660.41;5088509;28;20111;-61
2023/09/12 09:22:10;;;;;;;57.77;29.10;;;;;;;-145.18;100.00;46652.59;5090403;28;20388;-60
2023/09/12 09:24:35;;;;;;;61.93;31.17;;;;;;;-145.18;100.00;46660.41;5091675;28;20039;-61
2023/09/12 09:27:00;;;;;;;64.50;28.90;;;;;;;-145.18;100.00;46652.59;5113336;27;20035;-61
2023/09/12 09:29:34;;;;;;;71.20;32.30;;;;;;;-145.18;100.00;46650.63;5088220;28;20055;-61
2023/09/12 09:32:01;;;;;;;72.53;31.52;;;;;;;-145.18;100.00;46652.59;5091115;28;20108;-61
2023/09/12 09:34:29;;;;;;;80.60;34.95;;;;;;;-145.18;100.00;46658.44;5088270;28;20020;-60
2023/09/12 09:36:56;;;;;;;70.75;33.70;;;;;;;-145.18;100.00;46650.63;5090553;28;20039;-61
2023/09/12 09:39:28;;;;;;;72.88;33.58;;;;;;;-145.18;100.00;46654.53;5090003;28;20498;-61
2023/09/12 09:41:56;;;;;;;68.13;34.10;;;;;;;-145.18;100.00;46666.25;5089756;28;20070;-61
2023/09/12 09:44:23;;;;;;;70.90;33.38;;;;;;;-145.18;100.00;46668.22;5090167;28;20023;-61
2023/09/12 09:46:55;;;;;;;71.13;34.97;;;;;;;-145.18;100.00;46668.22;5091471;28;20028;-68
2023/09/12 09:49:21;;;;;;;70.72;35.20;;;;;;;-145.18;100.00;46664.31;5091225;28;20047;-61
2023/09/12 09:51:47;;;;;;;66.20;33.65;;;;;;;-145.18;100.00;46664.31;5088746;28;20122;-61
2023/09/12 09:54:14;;;;;;;69.53;35.63;;;;;;;-145.18;100.00;46674.06;5092190;28;20088;-61
2023/09/12 09:56:52;;;;;;;71.65;33.55;;;;;;;-145.18;100.00;46672.13;5091385;28;20340;-61
2023/09/12 09:59:20;;;;;;;68.88;32.85;;;;;;;-145.18;100.00;46676.03;5090124;28;20468;-61
2023/09/12 10:01:48;;;;;;;62.80;31.27;;;;;;;-145.18;100.00;46676.03;5091268;28;20039;-60
2023/09/12 10:04:15;;;;;;;67.07;32.15;;;;;;;-145.18;100.00;46658.44;5089475;28;20475;-61
2023/09/12 10:06:43;;;;;;;62.00;29.42;;;;;;;-145.18;100.00;46668.22;5090812;28;20436;-60
2023/09/12 10:09:11;;;;;;;66.97;31.70;;;;;;;-145.18;100.00;46644.78;5089374;28;20437;-60
2023/09/12 10:11:42;;;;;;;69.45;34.72;;;;;;;-145.18;100.00;46672.13;5089908;28;20043;-60
2023/09/12 10:14:08;;;;;;;70.28;34.53;;;;;;;-145.18;100.00;46672.13;5086313;28;20039;-60
2023/09/12 10:16:35;;;;;;;65.55;33.10;;;;;;;-145.18;100.00;46672.13;5088668;28;20035;-60
2023/09/12 10:19:20;;;;;;;73.00;34.35;;;;;;;-145.18;100.00;46666.25;5086994;28;20028;-60
2023/09/12 10:21:49;;;;;;;69.13;32.92;;;;;;;-145.18;100.00;46666.25;5087871;28;20487;-60
2023/09/12 10:24:15;;;;;;;65.60;32.47;;;;;;;-145.18;100.00;46666.25;5089997;28;20035;-60
2023/09/12 10:26:44;;;;;;;67.05;32.33;;;;;;;-145.18;100.00;46668.22;5090471;28;20123;-60
2023/09/12 10:29:13;;;;;;;61.00;30.50;;;;;;;-145.18;100.00;46668.22;5089272;28;20043;-60
2023/09/12 10:31:39;;;;;;;59.60;29.00;;;;;;;-145.18;100.00;46672.13;5086663;28;20066;-60
2023/09/12 10:34:09;;;;;;;65.32;30.08;;;;;;;-145.18;100.00;46677.97;5089352;28;20031;-60
2023/09/12 10:36:38;;;;;;;57.53;29.52;;;;;;;-145.18;100.00;46619.38;5088519;28;20036;-60
2023/09/12 10:39:05;;;;;;;63.60;31.65;;;;;;;-145.18;100.00;46611.56;5089652;28;20096;-60
2023/09/12 10:41:32;;;;;;;64.07;31.50;;;;;;;-145.18;100.00;46654.53;5085831;28;20028;-60
2023/09/12 10:43:58;;;;;;;59.92;31.05;;;;;;;-145.18;100.00;46654.53;5088883;28;20032;-60
2023/09/12 10:46:23;;;;;;;61.55;29.63;;;;;;;-145.18;100.00;46676.03;5089207;28;20027;-61
2023/09/12 10:48:49;;;;;;;57.10;31.10;;;;;;;-145.18;100.00;46676.03;5087726;28;20024;-60
2023/09/12 10:51:16;;;;;;;61.67;32.53;;;;;;;-145.18;100.00;46676.03;5089442;28;20032;-60
2023/09/12 10:53:50;;;;;;;59.75;30.40;;;;;;;-145.18;100.00;46676.03;5112992;27;20036;-60